sensor_id;sensor_type;location;lat;lon;timestamp;P1;durP1;ratioP1;P2;durP2;ratioP2
13279;SDS011;6708;49.814;8.652;2023-07-28T00:00:20;1.30;;;1.30;;
13279;SDS011;6708;49.814;8.652;2023-07-28T00:02:49;1.50;;;1.40;;
13279;SDS011;6708;49.814;8.652;2023-07-28T00:05:17;0.70;;;0.70;;
13279;SDS011;6708;49.814;8.652;2023-07-28T00:07:45;0.97;;;0.97;;
13279;SDS011;6708;49.814;8.652;2023-07-28T00:10:14;1.40;;;1.10;;
13279;SDS011;6708;49.814;8.652;2023-07-28T00:12:45;0.90;;;0.90;;
13279;SDS011;6708;49.814;8.652;2023-07-28T00:15:13;1.23;;;1.23;;
13279;SDS011;6708;49.814;8.652;2023-07-28T00:17:41;1.20;;;1.10;;
13279;SDS011;6708;49.814;8.652;2023-07-28T00:20:11;0.93;;;0.93;;
13279;SDS011;6708;49.814;8.652;2023-07-28T00:22:39;1.80;;;1.10;;
13279;SDS011;6708;49.814;8.652;2023-07-28T00:25:08;1.13;;;1.13;;
13279;SDS011;6708;49.814;8.652;2023-07-28T00:27:36;0.87;;;0.87;;
13279;SDS011;6708;49.814;8.652;2023-07-28T00:30:09;0.90;;;0.90;;
13279;SDS011;6708;49.814;8.652;2023-07-28T00:32:39;0.90;;;0.90;;
13279;SDS011;6708;49.814;8.652;2023-07-28T00:35:08;1.17;;;1.07;;
13279;SDS011;6708;49.814;8.652;2023-07-28T00:37:37;1.10;;;1.10;;
13279;SDS011;6708;49.814;8.652;2023-07-28T00:40:06;1.33;;;1.23;;
13279;SDS011;6708;49.814;8.652;2023-07-28T00:42:36;1.10;;;1.10;;
13279;SDS011;6708;49.814;8.652;2023-07-28T00:45:08;1.40;;;1.40;;
13279;SDS011;6708;49.814;8.652;2023-07-28T00:47:36;1.07;;;1.07;;
13279;SDS011;6708;49.814;8.652;2023-07-28T00:50:06;1.20;;;1.20;;
13279;SDS011;6708;49.814;8.652;2023-07-28T00:52:35;1.10;;;1.10;;
13279;SDS011;6708;49.814;8.652;2023-07-28T00:55:05;1.27;;;1.27;;
13279;SDS011;6708;49.814;8.652;2023-07-28T00:57:34;1.43;;;1.33;;
13279;SDS011;6708;49.814;8.652;2023-07-28T01:00:07;1.10;;;1.10;;
13279;SDS011;6708;49.814;8.652;2023-07-28T01:02:36;1.13;;;1.13;;
13279;SDS011;6708;49.814;8.652;2023-07-28T01:05:06;0.90;;;0.90;;
13279;SDS011;6708;49.814;8.652;2023-07-28T01:07:36;1.20;;;1.17;;
13279;SDS011;6708;49.814;8.652;2023-07-28T01:10:06;0.80;;;0.80;;
13279;SDS011;6708;49.814;8.652;2023-07-28T01:12:38;1.17;;;1.17;;
13279;SDS011;6708;49.814;8.652;2023-07-28T01:15:09;1.13;;;1.13;;
13279;SDS011;6708;49.814;8.652;2023-07-28T01:17:40;1.20;;;1.20;;
13279;SDS011;6708;49.814;8.652;2023-07-28T01:20:08;1.17;;;1.17;;
13279;SDS011;6708;49.814;8.652;2023-07-28T01:22:47;1.20;;;1.20;;
13279;SDS011;6708;49.814;8.652;2023-07-28T01:25:22;1.03;;;1.03;;
13279;SDS011;6708;49.814;8.652;2023-07-28T01:27:58;0.80;;;0.80;;
13279;SDS011;6708;49.814;8.652;2023-07-28T01:30:26;1.30;;;1.20;;
13279;SDS011;6708;49.814;8.652;2023-07-28T01:32:56;1.10;;;1.10;;
13279;SDS011;6708;49.814;8.652;2023-07-28T01:35:25;1.37;;;1.33;;
13279;SDS011;6708;49.814;8.652;2023-07-28T01:37:54;1.20;;;1.20;;
13279;SDS011;6708;49.814;8.652;2023-07-28T01:40:22;0.90;;;0.90;;
13279;SDS011;6708;49.814;8.652;2023-07-28T01:42:50;1.43;;;1.37;;
13279;SDS011;6708;49.814;8.652;2023-07-28T01:45:21;1.13;;;1.07;;
13279;SDS011;6708;49.814;8.652;2023-07-28T01:47:50;1.07;;;1.07;;
13279;SDS011;6708;49.814;8.652;2023-07-28T01:50:18;1.40;;;1.40;;
13279;SDS011;6708;49.814;8.652;2023-07-28T01:52:47;1.50;;;1.50;;
13279;SDS011;6708;49.814;8.652;2023-07-28T01:55:15;1.10;;;1.10;;
13279;SDS011;6708;49.814;8.652;2023-07-28T01:57:49;1.40;;;1.30;;
13279;SDS011;6708;49.814;8.652;2023-07-28T02:00:19;1.60;;;1.20;;
13279;SDS011;6708;49.814;8.652;2023-07-28T02:02:50;1.70;;;1.60;;
13279;SDS011;6708;49.814;8.652;2023-07-28T02:05:19;1.83;;;1.43;;
13279;SDS011;6708;49.814;8.652;2023-07-28T02:07:47;1.40;;;1.30;;
13279;SDS011;6708;49.814;8.652;2023-07-28T02:10:16;1.20;;;1.20;;
13279;SDS011;6708;49.814;8.652;2023-07-28T02:12:44;1.27;;;1.27;;
13279;SDS011;6708;49.814;8.652;2023-07-28T02:15:13;1.60;;;1.60;;
13279;SDS011;6708;49.814;8.652;2023-07-28T02:17:44;3.73;;;1.40;;
13279;SDS011;6708;49.814;8.652;2023-07-28T02:20:13;2.40;;;1.40;;
13279;SDS011;6708;49.814;8.652;2023-07-28T02:22:41;1.33;;;1.33;;
13279;SDS011;6708;49.814;8.652;2023-07-28T02:25:10;1.27;;;1.17;;
13279;SDS011;6708;49.814;8.652;2023-07-28T02:27:39;1.30;;;1.30;;
13279;SDS011;6708;49.814;8.652;2023-07-28T02:30:07;1.40;;;1.30;;
13279;SDS011;6708;49.814;8.652;2023-07-28T02:32:36;1.33;;;1.23;;
13279;SDS011;6708;49.814;8.652;2023-07-28T02:35:08;1.27;;;1.27;;
13279;SDS011;6708;49.814;8.652;2023-07-28T02:37:36;1.10;;;1.10;;
13279;SDS011;6708;49.814;8.652;2023-07-28T02:40:05;1.20;;;1.20;;
13279;SDS011;6708;49.814;8.652;2023-07-28T02:42:35;1.07;;;1.07;;
13279;SDS011;6708;49.814;8.652;2023-07-28T02:45:04;1.00;;;1.00;;
13279;SDS011;6708;49.814;8.652;2023-07-28T02:47:33;0.93;;;0.93;;
13279;SDS011;6708;49.814;8.652;2023-07-28T02:50:01;1.27;;;1.27;;
13279;SDS011;6708;49.814;8.652;2023-07-28T02:52:32;2.13;;;1.30;;
13279;SDS011;6708;49.814;8.652;2023-07-28T02:55:00;1.03;;;0.93;;
13279;SDS011;6708;49.814;8.652;2023-07-28T02:57:29;1.20;;;1.20;;
13279;SDS011;6708;49.814;8.652;2023-07-28T02:59:57;0.90;;;0.90;;
13279;SDS011;6708;49.814;8.652;2023-07-28T03:02:25;0.90;;;0.90;;
13279;SDS011;6708;49.814;8.652;2023-07-28T03:04:56;1.10;;;1.10;;
13279;SDS011;6708;49.814;8.652;2023-07-28T03:07:48;1.00;;;1.00;;
13279;SDS011;6708;49.814;8.652;2023-07-28T03:10:17;1.17;;;1.13;;
13279;SDS011;6708;49.814;8.652;2023-07-28T03:12:45;0.90;;;0.90;;
13279;SDS011;6708;49.814;8.652;2023-07-28T03:15:14;1.30;;;1.20;;
13279;SDS011;6708;49.814;8.652;2023-07-28T03:17:42;2.00;;;1.37;;
13279;SDS011;6708;49.814;8.652;2023-07-28T03:20:11;1.07;;;1.07;;
13279;SDS011;6708;49.814;8.652;2023-07-28T03:22:39;1.33;;;1.10;;
13279;SDS011;6708;49.814;8.652;2023-07-28T03:25:11;0.87;;;0.87;;
13279;SDS011;6708;49.814;8.652;2023-07-28T03:27:40;0.87;;;0.87;;
13279;SDS011;6708;49.814;8.652;2023-07-28T03:30:08;0.80;;;0.80;;
13279;SDS011;6708;49.814;8.652;2023-07-28T03:32:37;1.10;;;0.87;;
13279;SDS011;6708;49.814;8.652;2023-07-28T03:35:06;0.70;;;0.70;;
13279;SDS011;6708;49.814;8.652;2023-07-28T03:37:42;1.03;;;1.03;;
13279;SDS011;6708;49.814;8.652;2023-07-28T03:40:13;0.60;;;0.60;;
13279;SDS011;6708;49.814;8.652;2023-07-28T03:42:48;0.70;;;0.70;;
13279;SDS011;6708;49.814;8.652;2023-07-28T03:45:17;0.80;;;0.80;;
13279;SDS011;6708;49.814;8.652;2023-07-28T03:47:45;0.93;;;0.93;;
13279;SDS011;6708;49.814;8.652;2023-07-28T03:50:13;1.07;;;0.97;;
13279;SDS011;6708;49.814;8.652;2023-07-28T03:52:44;0.80;;;0.80;;
13279;SDS011;6708;49.814;8.652;2023-07-28T03:55:15;1.00;;;1.00;;
13279;SDS011;6708;49.814;8.652;2023-07-28T03:57:43;0.77;;;0.77;;
13279;SDS011;6708;49.814;8.652;2023-07-28T04:00:12;1.03;;;1.03;;
13279;SDS011;6708;49.814;8.652;2023-07-28T04:02:41;0.83;;;0.83;;
13279;SDS011;6708;49.814;8.652;2023-07-28T04:05:10;1.00;;;1.00;;
13279;SDS011;6708;49.814;8.652;2023-07-28T04:07:38;1.20;;;1.20;;
13279;SDS011;6708;49.814;8.652;2023-07-28T04:10:07;1.07;;;1.07;;
13279;SDS011;6708;49.814;8.652;2023-07-28T04:12:38;1.00;;;1.00;;
13279;SDS011;6708;49.814;8.652;2023-07-28T04:15:07;0.83;;;0.83;;
13279;SDS011;6708;49.814;8.652;2023-07-28T04:17:36;1.37;;;1.37;;
13279;SDS011;6708;49.814;8.652;2023-07-28T04:20:05;1.10;;;1.10;;
13279;SDS011;6708;49.814;8.652;2023-07-28T04:22:35;0.93;;;0.93;;
13279;SDS011;6708;49.814;8.652;2023-07-28T04:25:03;1.10;;;1.10;;
13279;SDS011;6708;49.814;8.652;2023-07-28T04:27:33;0.80;;;0.80;;
13279;SDS011;6708;49.814;8.652;2023-07-28T04:30:06;0.90;;;0.90;;
13279;SDS011;6708;49.814;8.652;2023-07-28T04:32:35;0.87;;;0.87;;
13279;SDS011;6708;49.814;8.652;2023-07-28T04:35:12;1.10;;;1.10;;
13279;SDS011;6708;49.814;8.652;2023-07-28T04:37:49;0.90;;;0.90;;
13279;SDS011;6708;49.814;8.652;2023-07-28T04:40:28;1.20;;;1.20;;
13279;SDS011;6708;49.814;8.652;2023-07-28T04:42:56;1.00;;;1.00;;
13279;SDS011;6708;49.814;8.652;2023-07-28T04:45:27;0.90;;;0.90;;
13279;SDS011;6708;49.814;8.652;2023-07-28T04:47:59;1.07;;;1.07;;
13279;SDS011;6708;49.814;8.652;2023-07-28T04:50:28;0.90;;;0.90;;
13279;SDS011;6708;49.814;8.652;2023-07-28T04:53:17;1.00;;;1.00;;
13279;SDS011;6708;49.814;8.652;2023-07-28T04:56:00;0.90;;;0.90;;
13279;SDS011;6708;49.814;8.652;2023-07-28T04:58:30;0.93;;;0.93;;
13279;SDS011;6708;49.814;8.652;2023-07-28T05:01:03;1.00;;;1.00;;
13279;SDS011;6708;49.814;8.652;2023-07-28T05:03:34;0.90;;;0.90;;
13279;SDS011;6708;49.814;8.652;2023-07-28T05:06:16;1.50;;;0.90;;
13279;SDS011;6708;49.814;8.652;2023-07-28T05:08:45;0.90;;;0.90;;
13279;SDS011;6708;49.814;8.652;2023-07-28T05:11:20;0.90;;;0.90;;
13279;SDS011;6708;49.814;8.652;2023-07-28T05:13:48;0.80;;;0.80;;
13279;SDS011;6708;49.814;8.652;2023-07-28T05:16:19;0.87;;;0.87;;
13279;SDS011;6708;49.814;8.652;2023-07-28T05:19:10;0.90;;;0.90;;
13279;SDS011;6708;49.814;8.652;2023-07-28T05:21:41;1.07;;;1.07;;
13279;SDS011;6708;49.814;8.652;2023-07-28T05:24:12;0.67;;;0.67;;
13279;SDS011;6708;49.814;8.652;2023-07-28T05:26:41;0.80;;;0.80;;
13279;SDS011;6708;49.814;8.652;2023-07-28T05:29:10;0.87;;;0.87;;
13279;SDS011;6708;49.814;8.652;2023-07-28T05:31:42;1.10;;;1.10;;
13279;SDS011;6708;49.814;8.652;2023-07-28T05:34:26;1.10;;;1.10;;
13279;SDS011;6708;49.814;8.652;2023-07-28T05:36:55;1.10;;;1.00;;
13279;SDS011;6708;49.814;8.652;2023-07-28T05:39:30;0.93;;;0.93;;
13279;SDS011;6708;49.814;8.652;2023-07-28T05:41:59;1.40;;;1.17;;
13279;SDS011;6708;49.814;8.652;2023-07-28T05:44:29;1.10;;;1.10;;
13279;SDS011;6708;49.814;8.652;2023-07-28T05:47:00;0.90;;;0.90;;
13279;SDS011;6708;49.814;8.652;2023-07-28T05:49:30;1.40;;;1.03;;
13279;SDS011;6708;49.814;8.652;2023-07-28T05:51:59;1.03;;;1.03;;
13279;SDS011;6708;49.814;8.652;2023-07-28T05:54:28;1.07;;;1.00;;
13279;SDS011;6708;49.814;8.652;2023-07-28T05:56:56;1.20;;;1.20;;
13279;SDS011;6708;49.814;8.652;2023-07-28T05:59:25;1.30;;;1.30;;
13279;SDS011;6708;49.814;8.652;2023-07-28T06:01:54;1.00;;;1.00;;
13279;SDS011;6708;49.814;8.652;2023-07-28T06:04:46;1.20;;;1.20;;
13279;SDS011;6708;49.814;8.652;2023-07-28T06:07:15;1.30;;;1.30;;
13279;SDS011;6708;49.814;8.652;2023-07-28T06:09:44;1.10;;;1.10;;
13279;SDS011;6708;49.814;8.652;2023-07-28T06:12:13;0.90;;;0.90;;
13279;SDS011;6708;49.814;8.652;2023-07-28T06:14:41;1.00;;;1.00;;
13279;SDS011;6708;49.814;8.652;2023-07-28T06:17:11;1.23;;;1.20;;
13279;SDS011;6708;49.814;8.652;2023-07-28T06:19:40;1.10;;;1.10;;
13279;SDS011;6708;49.814;8.652;2023-07-28T06:22:12;3.70;;;1.10;;
13279;SDS011;6708;49.814;8.652;2023-07-28T06:24:43;0.80;;;0.80;;
13279;SDS011;6708;49.814;8.652;2023-07-28T06:27:11;2.77;;;0.70;;
13279;SDS011;6708;49.814;8.652;2023-07-28T06:29:40;0.80;;;0.80;;
13279;SDS011;6708;49.814;8.652;2023-07-28T06:32:09;0.90;;;0.90;;
13279;SDS011;6708;49.814;8.652;2023-07-28T06:34:37;0.73;;;0.73;;
13279;SDS011;6708;49.814;8.652;2023-07-28T06:37:06;0.83;;;0.83;;
13279;SDS011;6708;49.814;8.652;2023-07-28T06:39:38;0.67;;;0.67;;
13279;SDS011;6708;49.814;8.652;2023-07-28T06:42:07;0.77;;;0.77;;
13279;SDS011;6708;49.814;8.652;2023-07-28T06:44:38;0.83;;;0.83;;
13279;SDS011;6708;49.814;8.652;2023-07-28T06:47:07;0.90;;;0.90;;
13279;SDS011;6708;49.814;8.652;2023-07-28T06:49:36;1.00;;;1.00;;
13279;SDS011;6708;49.814;8.652;2023-07-28T06:52:05;0.63;;;0.63;;
13279;SDS011;6708;49.814;8.652;2023-07-28T06:54:34;0.90;;;0.90;;
13279;SDS011;6708;49.814;8.652;2023-07-28T06:57:06;0.50;;;0.50;;
13279;SDS011;6708;49.814;8.652;2023-07-28T06:59:37;0.80;;;0.80;;
13279;SDS011;6708;49.814;8.652;2023-07-28T07:02:05;0.50;;;0.50;;
13279;SDS011;6708;49.814;8.652;2023-07-28T07:04:34;1.70;;;0.90;;
13279;SDS011;6708;49.814;8.652;2023-07-28T07:07:03;1.10;;;1.00;;
13279;SDS011;6708;49.814;8.652;2023-07-28T07:09:31;0.80;;;0.80;;
13279;SDS011;6708;49.814;8.652;2023-07-28T07:12:03;0.80;;;0.80;;
13279;SDS011;6708;49.814;8.652;2023-07-28T07:14:32;0.83;;;0.83;;
13279;SDS011;6708;49.814;8.652;2023-07-28T07:17:00;1.10;;;1.00;;
13279;SDS011;6708;49.814;8.652;2023-07-28T07:19:29;0.83;;;0.83;;
13279;SDS011;6708;49.814;8.652;2023-07-28T07:21:57;0.93;;;0.93;;
13279;SDS011;6708;49.814;8.652;2023-07-28T07:24:27;2.40;;;0.70;;
13279;SDS011;6708;49.814;8.652;2023-07-28T07:26:55;1.07;;;1.07;;
13279;SDS011;6708;49.814;8.652;2023-07-28T07:29:27;1.20;;;1.10;;
13279;SDS011;6708;49.814;8.652;2023-07-28T07:31:57;0.70;;;0.70;;
13279;SDS011;6708;49.814;8.652;2023-07-28T07:34:27;1.03;;;0.70;;
13279;SDS011;6708;49.814;8.652;2023-07-28T07:36:57;0.80;;;0.80;;
13279;SDS011;6708;49.814;8.652;2023-07-28T07:39:26;1.03;;;1.03;;
13279;SDS011;6708;49.814;8.652;2023-07-28T07:41:55;0.80;;;0.80;;
13279;SDS011;6708;49.814;8.652;2023-07-28T07:44:23;0.80;;;0.80;;
13279;SDS011;6708;49.814;8.652;2023-07-28T07:46:54;1.07;;;1.07;;
13279;SDS011;6708;49.814;8.652;2023-07-28T07:49:26;1.63;;;1.07;;
13279;SDS011;6708;49.814;8.652;2023-07-28T07:51:55;0.97;;;0.73;;
13279;SDS011;6708;49.814;8.652;2023-07-28T07:54:23;0.90;;;0.90;;
13279;SDS011;6708;49.814;8.652;2023-07-28T07:56:52;0.90;;;0.90;;
13279;SDS011;6708;49.814;8.652;2023-07-28T07:59:20;0.90;;;0.90;;
13279;SDS011;6708;49.814;8.652;2023-07-28T08:01:51;0.90;;;0.90;;
13279;SDS011;6708;49.814;8.652;2023-07-28T08:04:22;0.70;;;0.70;;
13279;SDS011;6708;49.814;8.652;2023-07-28T08:06:50;1.60;;;0.60;;
13279;SDS011;6708;49.814;8.652;2023-07-28T08:09:19;1.30;;;1.20;;
13279;SDS011;6708;49.814;8.652;2023-07-28T08:11:48;0.93;;;0.93;;
13279;SDS011;6708;49.814;8.652;2023-07-28T08:14:17;1.20;;;1.07;;
13279;SDS011;6708;49.814;8.652;2023-07-28T08:16:46;0.80;;;0.80;;
13279;SDS011;6708;49.814;8.652;2023-07-28T08:19:15;0.60;;;0.60;;
13279;SDS011;6708;49.814;8.652;2023-07-28T08:21:46;0.90;;;0.90;;
13279;SDS011;6708;49.814;8.652;2023-07-28T08:24:14;0.80;;;0.80;;
13279;SDS011;6708;49.814;8.652;2023-07-28T08:26:42;0.93;;;0.93;;
13279;SDS011;6708;49.814;8.652;2023-07-28T08:29:11;2.03;;;1.10;;
13279;SDS011;6708;49.814;8.652;2023-07-28T08:31:39;0.60;;;0.60;;
13279;SDS011;6708;49.814;8.652;2023-07-28T08:34:07;2.53;;;0.80;;
13279;SDS011;6708;49.814;8.652;2023-07-28T08:36:36;0.80;;;0.80;;
13279;SDS011;6708;49.814;8.652;2023-07-28T08:39:07;0.83;;;0.83;;
13279;SDS011;6708;49.814;8.652;2023-07-28T08:41:35;0.63;;;0.63;;
13279;SDS011;6708;49.814;8.652;2023-07-28T08:44:04;0.90;;;0.90;;
13279;SDS011;6708;49.814;8.652;2023-07-28T08:46:32;1.10;;;1.10;;
13279;SDS011;6708;49.814;8.652;2023-07-28T08:49:01;1.10;;;1.00;;
13279;SDS011;6708;49.814;8.652;2023-07-28T08:51:30;0.70;;;0.70;;
13279;SDS011;6708;49.814;8.652;2023-07-28T08:53:58;0.90;;;0.90;;
13279;SDS011;6708;49.814;8.652;2023-07-28T08:56:29;1.57;;;1.00;;
13279;SDS011;6708;49.814;8.652;2023-07-28T08:58:58;0.90;;;0.90;;
13279;SDS011;6708;49.814;8.652;2023-07-28T09:01:27;0.93;;;0.93;;
13279;SDS011;6708;49.814;8.652;2023-07-28T09:03:55;0.83;;;0.83;;
13279;SDS011;6708;49.814;8.652;2023-07-28T09:06:27;0.80;;;0.80;;
13279;SDS011;6708;49.814;8.652;2023-07-28T09:08:57;1.13;;;0.97;;
13279;SDS011;6708;49.814;8.652;2023-07-28T09:11:25;0.83;;;0.83;;
13279;SDS011;6708;49.814;8.652;2023-07-28T09:13:59;1.00;;;1.00;;
13279;SDS011;6708;49.814;8.652;2023-07-28T09:16:28;0.70;;;0.70;;
13279;SDS011;6708;49.814;8.652;2023-07-28T09:19:03;2.10;;;1.00;;
13279;SDS011;6708;49.814;8.652;2023-07-28T09:21:33;1.03;;;0.60;;
13279;SDS011;6708;49.814;8.652;2023-07-28T09:24:03;0.77;;;0.77;;
13279;SDS011;6708;49.814;8.652;2023-07-28T09:26:38;0.70;;;0.70;;
13279;SDS011;6708;49.814;8.652;2023-07-28T09:29:13;0.60;;;0.60;;
13279;SDS011;6708;49.814;8.652;2023-07-28T09:31:43;0.60;;;0.60;;
13279;SDS011;6708;49.814;8.652;2023-07-28T09:34:12;0.70;;;0.70;;
13279;SDS011;6708;49.814;8.652;2023-07-28T09:36:41;0.57;;;0.57;;
13279;SDS011;6708;49.814;8.652;2023-07-28T09:39:10;0.90;;;0.90;;
13279;SDS011;6708;49.814;8.652;2023-07-28T09:41:38;0.60;;;0.60;;
13279;SDS011;6708;49.814;8.652;2023-07-28T09:44:06;0.43;;;0.43;;
13279;SDS011;6708;49.814;8.652;2023-07-28T09:46:37;0.53;;;0.53;;
13279;SDS011;6708;49.814;8.652;2023-07-28T09:49:19;0.70;;;0.70;;
13279;SDS011;6708;49.814;8.652;2023-07-28T09:51:50;0.50;;;0.50;;
13279;SDS011;6708;49.814;8.652;2023-07-28T09:54:23;0.40;;;0.40;;
13279;SDS011;6708;49.814;8.652;2023-07-28T09:56:54;0.70;;;0.70;;
13279;SDS011;6708;49.814;8.652;2023-07-28T09:59:26;0.70;;;0.70;;
13279;SDS011;6708;49.814;8.652;2023-07-28T10:02:00;0.50;;;0.50;;
13279;SDS011;6708;49.814;8.652;2023-07-28T10:04:29;0.60;;;0.60;;
13279;SDS011;6708;49.814;8.652;2023-07-28T10:06:57;0.60;;;0.60;;
13279;SDS011;6708;49.814;8.652;2023-07-28T10:09:27;0.40;;;0.40;;
13279;SDS011;6708;49.814;8.652;2023-07-28T10:11:56;1.07;;;0.80;;
13279;SDS011;6708;49.814;8.652;2023-07-28T10:14:25;0.53;;;0.53;;
13279;SDS011;6708;49.814;8.652;2023-07-28T10:16:55;1.00;;;0.87;;
13279;SDS011;6708;49.814;8.652;2023-07-28T10:19:27;0.60;;;0.60;;
13279;SDS011;6708;49.814;8.652;2023-07-28T10:22:01;0.70;;;0.70;;
13279;SDS011;6708;49.814;8.652;2023-07-28T10:27:30;0.73;;;0.63;;
13279;SDS011;6708;49.814;8.652;2023-07-28T10:29:59;0.63;;;0.63;;
13279;SDS011;6708;49.814;8.652;2023-07-28T10:32:34;0.60;;;0.60;;
13279;SDS011;6708;49.814;8.652;2023-07-28T10:35:08;0.53;;;0.53;;
13279;SDS011;6708;49.814;8.652;2023-07-28T10:37:37;0.77;;;0.77;;
13279;SDS011;6708;49.814;8.652;2023-07-28T10:40:21;0.73;;;0.70;;
13279;SDS011;6708;49.814;8.652;2023-07-28T10:42:51;0.83;;;0.70;;
13279;SDS011;6708;49.814;8.652;2023-07-28T10:45:21;0.63;;;0.63;;
13279;SDS011;6708;49.814;8.652;2023-07-28T10:47:51;0.60;;;0.60;;
13279;SDS011;6708;49.814;8.652;2023-07-28T10:50:23;0.40;;;0.40;;
13279;SDS011;6708;49.814;8.652;2023-07-28T10:52:51;0.57;;;0.53;;
13279;SDS011;6708;49.814;8.652;2023-07-28T10:55:20;0.50;;;0.50;;
13279;SDS011;6708;49.814;8.652;2023-07-28T10:57:50;0.50;;;0.50;;
13279;SDS011;6708;49.814;8.652;2023-07-28T11:00:20;0.50;;;0.50;;
13279;SDS011;6708;49.814;8.652;2023-07-28T11:02:52;0.40;;;0.40;;
13279;SDS011;6708;49.814;8.652;2023-07-28T11:05:24;0.50;;;0.50;;
13279;SDS011;6708;49.814;8.652;2023-07-28T11:07:53;0.30;;;0.30;;
13279;SDS011;6708;49.814;8.652;2023-07-28T11:10:23;0.50;;;0.50;;
13279;SDS011;6708;49.814;8.652;2023-07-28T11:12:52;0.70;;;0.70;;
13279;SDS011;6708;49.814;8.652;2023-07-28T11:15:20;0.50;;;0.50;;
13279;SDS011;6708;49.814;8.652;2023-07-28T11:17:49;0.50;;;0.50;;
13279;SDS011;6708;49.814;8.652;2023-07-28T11:20:18;0.40;;;0.40;;
13279;SDS011;6708;49.814;8.652;2023-07-28T11:22:54;0.40;;;0.40;;
13279;SDS011;6708;49.814;8.652;2023-07-28T11:25:23;0.30;;;0.30;;
13279;SDS011;6708;49.814;8.652;2023-07-28T11:27:53;0.53;;;0.50;;
13279;SDS011;6708;49.814;8.652;2023-07-28T11:30:22;0.60;;;0.60;;
13279;SDS011;6708;49.814;8.652;2023-07-28T11:32:51;0.50;;;0.50;;
13279;SDS011;6708;49.814;8.652;2023-07-28T11:35:21;0.50;;;0.50;;
13279;SDS011;6708;49.814;8.652;2023-07-28T11:37:50;0.50;;;0.50;;
13279;SDS011;6708;49.814;8.652;2023-07-28T11:40:21;0.60;;;0.60;;
13279;SDS011;6708;49.814;8.652;2023-07-28T11:42:51;0.50;;;0.50;;
13279;SDS011;6708;49.814;8.652;2023-07-28T11:45:21;0.60;;;0.60;;
13279;SDS011;6708;49.814;8.652;2023-07-28T11:47:51;0.63;;;0.63;;
13279;SDS011;6708;49.814;8.652;2023-07-28T11:50:24;0.53;;;0.53;;
13279;SDS011;6708;49.814;8.652;2023-07-28T11:52:57;1.00;;;0.60;;
13279;SDS011;6708;49.814;8.652;2023-07-28T11:55:25;0.93;;;0.77;;
13279;SDS011;6708;49.814;8.652;2023-07-28T11:57:54;0.80;;;0.80;;
13279;SDS011;6708;49.814;8.652;2023-07-28T12:00:29;0.50;;;0.50;;
13279;SDS011;6708;49.814;8.652;2023-07-28T12:03:05;0.63;;;0.60;;
13279;SDS011;6708;49.814;8.652;2023-07-28T12:05:37;2.50;;;0.90;;
13279;SDS011;6708;49.814;8.652;2023-07-28T12:08:09;0.60;;;0.60;;
13279;SDS011;6708;49.814;8.652;2023-07-28T12:10:37;0.57;;;0.57;;
13279;SDS011;6708;49.814;8.652;2023-07-28T12:13:06;0.37;;;0.37;;
13279;SDS011;6708;49.814;8.652;2023-07-28T12:15:39;0.63;;;0.63;;
13279;SDS011;6708;49.814;8.652;2023-07-28T12:18:09;0.60;;;0.60;;
13279;SDS011;6708;49.814;8.652;2023-07-28T12:20:39;0.47;;;0.47;;
13279;SDS011;6708;49.814;8.652;2023-07-28T12:23:14;0.30;;;0.30;;
13279;SDS011;6708;49.814;8.652;2023-07-28T12:25:44;0.50;;;0.50;;
13279;SDS011;6708;49.814;8.652;2023-07-28T12:28:12;0.63;;;0.50;;
13279;SDS011;6708;49.814;8.652;2023-07-28T12:30:41;0.40;;;0.40;;
13279;SDS011;6708;49.814;8.652;2023-07-28T12:33:09;0.70;;;0.70;;
13279;SDS011;6708;49.814;8.652;2023-07-28T12:35:38;0.40;;;0.40;;
13279;SDS011;6708;49.814;8.652;2023-07-28T12:38:06;0.40;;;0.40;;
13279;SDS011;6708;49.814;8.652;2023-07-28T12:40:37;0.50;;;0.50;;
13279;SDS011;6708;49.814;8.652;2023-07-28T12:43:06;0.57;;;0.57;;
13279;SDS011;6708;49.814;8.652;2023-07-28T12:45:34;0.63;;;0.63;;
13279;SDS011;6708;49.814;8.652;2023-07-28T12:48:03;3.50;;;0.63;;
13279;SDS011;6708;49.814;8.652;2023-07-28T12:50:31;0.50;;;0.50;;
13279;SDS011;6708;49.814;8.652;2023-07-28T12:53:00;2.33;;;0.90;;
13279;SDS011;6708;49.814;8.652;2023-07-28T12:55:28;0.50;;;0.50;;
13279;SDS011;6708;49.814;8.652;2023-07-28T12:58:01;0.60;;;0.60;;
13279;SDS011;6708;49.814;8.652;2023-07-28T13:00:30;0.50;;;0.50;;
13279;SDS011;6708;49.814;8.652;2023-07-28T13:02:59;0.60;;;0.60;;
13279;SDS011;6708;49.814;8.652;2023-07-28T13:05:27;0.60;;;0.60;;
13279;SDS011;6708;49.814;8.652;2023-07-28T13:07:56;0.60;;;0.60;;
13279;SDS011;6708;49.814;8.652;2023-07-28T13:10:24;0.50;;;0.50;;
13279;SDS011;6708;49.814;8.652;2023-07-28T13:12:52;0.70;;;0.70;;
13279;SDS011;6708;49.814;8.652;2023-07-28T13:15:23;2.13;;;0.70;;
13279;SDS011;6708;49.814;8.652;2023-07-28T13:17:52;1.17;;;0.67;;
13279;SDS011;6708;49.814;8.652;2023-07-28T13:20:20;0.60;;;0.60;;
13279;SDS011;6708;49.814;8.652;2023-07-28T13:22:50;1.13;;;0.70;;
13279;SDS011;6708;49.814;8.652;2023-07-28T13:25:18;0.70;;;0.70;;
13279;SDS011;6708;49.814;8.652;2023-07-28T13:27:47;0.57;;;0.57;;
13279;SDS011;6708;49.814;8.652;2023-07-28T13:30:15;1.00;;;0.97;;
13279;SDS011;6708;49.814;8.652;2023-07-28T13:32:46;2.10;;;0.60;;
13279;SDS011;6708;49.814;8.652;2023-07-28T13:35:16;0.80;;;0.80;;
13279;SDS011;6708;49.814;8.652;2023-07-28T13:37:45;0.60;;;0.60;;
13279;SDS011;6708;49.814;8.652;2023-07-28T13:40:13;0.83;;;0.83;;
13279;SDS011;6708;49.814;8.652;2023-07-28T13:42:42;0.80;;;0.80;;
13279;SDS011;6708;49.814;8.652;2023-07-28T13:45:10;0.60;;;0.60;;
13279;SDS011;6708;49.814;8.652;2023-07-28T13:47:38;0.77;;;0.77;;
13279;SDS011;6708;49.814;8.652;2023-07-28T13:50:09;0.50;;;0.50;;
13279;SDS011;6708;49.814;8.652;2023-07-28T13:52:38;0.70;;;0.70;;
13279;SDS011;6708;49.814;8.652;2023-07-28T13:55:07;0.77;;;0.77;;
13279;SDS011;6708;49.814;8.652;2023-07-28T13:57:36;0.57;;;0.57;;
13279;SDS011;6708;49.814;8.652;2023-07-28T14:00:05;0.70;;;0.70;;
13279;SDS011;6708;49.814;8.652;2023-07-28T14:02:38;0.83;;;0.83;;
13279;SDS011;6708;49.814;8.652;2023-07-28T14:05:07;0.80;;;0.80;;
13279;SDS011;6708;49.814;8.652;2023-07-28T14:07:38;0.80;;;0.80;;
13279;SDS011;6708;49.814;8.652;2023-07-28T14:10:07;0.70;;;0.70;;
13279;SDS011;6708;49.814;8.652;2023-07-28T14:12:36;0.70;;;0.70;;
13279;SDS011;6708;49.814;8.652;2023-07-28T14:15:06;0.77;;;0.77;;
13279;SDS011;6708;49.814;8.652;2023-07-28T14:17:36;0.77;;;0.73;;
13279;SDS011;6708;49.814;8.652;2023-07-28T14:20:05;0.80;;;0.80;;
13279;SDS011;6708;49.814;8.652;2023-07-28T14:22:37;0.80;;;0.80;;
13279;SDS011;6708;49.814;8.652;2023-07-28T14:25:06;0.70;;;0.70;;
13279;SDS011;6708;49.814;8.652;2023-07-28T14:27:35;1.90;;;1.07;;
13279;SDS011;6708;49.814;8.652;2023-07-28T14:30:04;0.93;;;0.93;;
13279;SDS011;6708;49.814;8.652;2023-07-28T14:32:33;0.97;;;0.83;;
13279;SDS011;6708;49.814;8.652;2023-07-28T14:35:01;1.00;;;0.90;;
13279;SDS011;6708;49.814;8.652;2023-07-28T14:37:32;1.07;;;1.07;;
13279;SDS011;6708;49.814;8.652;2023-07-28T14:40:04;0.87;;;0.87;;
13279;SDS011;6708;49.814;8.652;2023-07-28T14:42:33;0.60;;;0.60;;
13279;SDS011;6708;49.814;8.652;2023-07-28T14:45:02;0.70;;;0.70;;
13279;SDS011;6708;49.814;8.652;2023-07-28T14:47:32;0.50;;;0.50;;
13279;SDS011;6708;49.814;8.652;2023-07-28T14:50:00;1.60;;;0.80;;
13279;SDS011;6708;49.814;8.652;2023-07-28T14:52:29;0.60;;;0.60;;
13279;SDS011;6708;49.814;8.652;2023-07-28T14:54:57;0.70;;;0.70;;
13279;SDS011;6708;49.814;8.652;2023-07-28T14:57:28;0.83;;;0.83;;
13279;SDS011;6708;49.814;8.652;2023-07-28T14:59:57;0.73;;;0.73;;
13279;SDS011;6708;49.814;8.652;2023-07-28T15:02:25;0.80;;;0.80;;
13279;SDS011;6708;49.814;8.652;2023-07-28T15:04:54;0.93;;;0.93;;
13279;SDS011;6708;49.814;8.652;2023-07-28T15:07:22;0.60;;;0.60;;
13279;SDS011;6708;49.814;8.652;2023-07-28T15:09:51;0.70;;;0.70;;
13279;SDS011;6708;49.814;8.652;2023-07-28T15:12:20;0.90;;;0.90;;
13279;SDS011;6708;49.814;8.652;2023-07-28T15:14:51;0.87;;;0.87;;
13279;SDS011;6708;49.814;8.652;2023-07-28T15:17:19;0.70;;;0.70;;
13279;SDS011;6708;49.814;8.652;2023-07-28T15:19:50;0.60;;;0.60;;